createdAt,value
2018-11-10T00:00:21.832Z,128.13
2018-11-10T00:02:50.795Z,128.03
2018-11-10T00:05:20.115Z,128.00
2018-11-10T00:07:48.529Z,118.90
2018-11-10T00:10:17.698Z,121.47
2018-11-10T00:12:46.553Z,124.57
2018-11-10T00:15:15.275Z,136.60
2018-11-10T00:17:43.651Z,139.37
2018-11-10T00:20:12.339Z,121.00
2018-11-10T00:22:41.722Z,151.87
2018-11-10T00:25:13.295Z,119.13
2018-11-10T00:27:42.474Z,152.10
2018-11-10T00:30:13.542Z,123.03
2018-11-10T00:32:42.514Z,164.93
2018-11-10T00:35:10.579Z,152.27
2018-11-10T00:37:38.958Z,125.63
2018-11-10T00:40:08.634Z,128.37
2018-11-10T00:42:37.593Z,130.40
2018-11-10T00:45:06.610Z,148.37
2018-11-10T00:47:34.990Z,137.17
2018-11-10T00:50:03.391Z,141.33
2018-11-10T00:52:31.770Z,125.00
2018-11-10T00:55:00.178Z,116.43
2018-11-10T00:57:28.557Z,148.73
2018-11-10T00:59:56.955Z,147.07
2018-11-10T01:02:25.533Z,136.83
2018-11-10T01:04:53.934Z,138.03
2018-11-10T01:07:22.310Z,131.17
2018-11-10T01:09:50.710Z,134.53
2018-11-10T01:12:19.087Z,142.90
2018-11-10T01:14:47.491Z,135.97
2018-11-10T01:17:15.870Z,133.13
2018-11-10T01:19:44.274Z,121.57
2018-11-10T01:22:12.659Z,154.60
2018-11-10T01:24:41.082Z,150.80
2018-11-10T01:27:09.454Z,148.40
2018-11-10T01:29:37.843Z,147.40
2018-11-10T01:32:06.614Z,138.60
2018-11-10T01:34:34.995Z,135.73
2018-11-10T01:37:03.394Z,147.57
2018-11-10T01:39:31.770Z,145.87
2018-11-10T01:42:00.211Z,150.47
2018-11-10T01:44:28.597Z,135.83
2018-11-10T01:46:57.093Z,150.80
2018-11-10T01:49:25.466Z,145.10
2018-11-10T01:51:53.869Z,128.77
2018-11-10T01:54:22.243Z,131.63
2018-11-10T01:56:50.651Z,151.07
2018-11-10T01:59:19.039Z,155.30
2018-11-10T02:01:47.443Z,149.20
2018-11-10T02:04:15.823Z,171.73
2018-11-10T02:06:44.288Z,154.50
2018-11-10T02:09:12.643Z,131.23
2018-11-10T02:11:41.046Z,117.20
2018-11-10T02:14:09.430Z,134.10
2018-11-10T02:16:37.848Z,136.90
2018-11-10T02:19:06.760Z,131.30
2018-11-10T02:21:35.155Z,140.60
2018-11-10T02:24:03.694Z,129.97
2018-11-10T02:26:32.086Z,144.77
2018-11-10T02:29:00.475Z,136.53
2018-11-10T02:31:28.885Z,120.33
2018-11-10T02:33:57.267Z,135.03
2018-11-10T02:36:25.667Z,136.83
2018-11-10T02:38:54.209Z,134.93
2018-11-10T02:41:22.601Z,128.37
2018-11-10T02:43:50.979Z,137.07
2018-11-10T02:46:19.412Z,129.00
2018-11-10T02:48:47.795Z,137.70
2018-11-10T02:51:16.195Z,146.20
2018-11-10T02:53:44.563Z,133.03
2018-11-10T02:56:12.954Z,131.90
2018-11-10T02:58:41.323Z,140.63
2018-11-10T03:01:09.724Z,113.43
2018-11-10T03:03:38.097Z,124.80
2018-11-10T03:06:06.674Z,137.97
2018-11-10T03:08:35.059Z,125.03
2018-11-10T03:11:03.458Z,127.47
2018-11-10T03:13:31.844Z,130.73
2018-11-10T03:16:00.254Z,105.43
2018-11-10T03:18:28.626Z,134.13
2018-11-10T03:20:57.004Z,128.57
2018-11-10T03:23:25.397Z,124.90
2018-11-10T03:25:53.775Z,130.87
2018-11-10T03:28:22.162Z,130.03
2018-11-10T03:30:50.543Z,129.47
2018-11-10T03:33:18.938Z,121.00
2018-11-10T03:35:47.306Z,150.60
2018-11-10T03:38:15.707Z,121.47
2018-11-10T03:40:44.088Z,135.17
2018-11-10T03:43:12.510Z,119.30
2018-11-10T03:45:40.878Z,114.60
2018-11-10T03:48:09.266Z,137.87
2018-11-10T03:50:37.638Z,117.53
2018-11-10T03:53:06.263Z,135.03
2018-11-10T03:55:34.637Z,142.30
2018-11-10T03:58:03.030Z,134.63
2018-11-10T04:00:31.403Z,127.37
2018-11-10T04:02:59.802Z,128.17
2018-11-10T04:05:28.183Z,127.13
2018-11-10T04:07:56.574Z,126.33
2018-11-10T04:10:24.946Z,137.50
2018-11-10T04:12:53.346Z,138.80
2018-11-10T04:15:21.718Z,136.50
2018-11-10T04:17:50.118Z,129.73
2018-11-10T04:20:18.489Z,143.50
2018-11-10T04:22:46.885Z,143.40
2018-11-10T04:25:15.263Z,124.57
2018-11-10T04:27:43.663Z,117.97
2018-11-10T04:30:12.388Z,154.30
2018-11-10T04:32:40.782Z,135.77
2018-11-10T04:35:09.269Z,133.57
2018-11-10T04:37:37.952Z,147.13
2018-11-10T04:40:07.274Z,142.30
2018-11-10T04:42:35.710Z,123.43
2018-11-10T04:45:04.118Z,145.07
2018-11-10T04:47:32.559Z,153.83
2018-11-10T04:50:00.925Z,152.80
2018-11-10T04:52:29.345Z,112.57
2018-11-10T04:54:57.718Z,147.30
2018-11-10T04:57:26.085Z,121.20
2018-11-10T04:59:54.559Z,131.37
2018-11-10T05:02:22.938Z,125.90
2018-11-10T05:04:51.334Z,130.13
2018-11-10T05:07:19.706Z,131.67
2018-11-10T05:09:48.117Z,130.80
2018-11-10T05:12:16.490Z,149.70
2018-11-10T05:14:44.882Z,140.37
2018-11-10T05:17:13.278Z,126.70
2018-11-10T05:19:41.680Z,138.17
2018-11-10T05:22:10.059Z,132.07
2018-11-10T05:24:38.460Z,130.50
2018-11-10T05:27:06.831Z,131.77
2018-11-10T05:29:35.226Z,134.13
2018-11-10T05:32:03.718Z,133.90
2018-11-10T05:34:32.105Z,126.40
2018-11-10T05:37:00.483Z,139.47
2018-11-10T05:39:28.879Z,135.47
2018-11-10T05:41:57.271Z,138.77
2018-11-10T05:44:25.679Z,138.80
2018-11-10T05:46:54.047Z,135.03
2018-11-10T05:49:22.448Z,135.07
2018-11-10T05:51:50.850Z,137.93
2018-11-10T05:54:19.254Z,140.70
2018-11-10T05:56:47.630Z,119.17
2018-11-10T05:59:16.031Z,128.50
2018-11-10T06:01:44.407Z,134.00
2018-11-10T06:04:12.882Z,138.43
2018-11-10T06:06:41.335Z,149.20
2018-11-10T06:09:11.313Z,121.47
2018-11-10T06:11:40.363Z,138.00
2018-11-10T06:14:09.092Z,123.57
2018-11-10T06:16:37.631Z,138.93
2018-11-10T06:19:06.329Z,138.83
2018-11-10T06:21:34.729Z,137.10
2018-11-10T06:24:03.111Z,129.23
2018-11-10T06:26:31.502Z,141.27
2018-11-10T06:29:00.088Z,128.00
2018-11-10T06:31:28.507Z,129.63
2018-11-10T06:33:56.980Z,120.13
2018-11-10T06:36:25.408Z,120.03
2018-11-10T06:38:53.789Z,114.30
2018-11-10T06:41:22.424Z,127.33
2018-11-10T06:43:50.754Z,131.47
2018-11-10T06:46:19.157Z,113.83
2018-11-10T06:48:47.538Z,123.83
2018-11-10T06:51:15.942Z,132.47
2018-11-10T06:53:44.313Z,136.37
2018-11-10T06:56:12.710Z,140.83
2018-11-10T06:58:41.082Z,126.77
2018-11-10T07:01:09.469Z,130.17
2018-11-10T07:03:37.853Z,133.53
2018-11-10T07:06:06.690Z,143.30
2018-11-10T07:08:35.072Z,156.00
2018-11-10T07:11:03.475Z,141.87
2018-11-10T07:13:31.850Z,130.53
2018-11-10T07:16:00.255Z,150.97
2018-11-10T07:18:28.636Z,139.73
2018-11-10T07:20:57.777Z,144.10
2018-11-10T07:23:26.153Z,137.70
2018-11-10T07:25:54.546Z,131.63
2018-11-10T07:28:22.930Z,153.80
2018-11-10T07:30:51.331Z,116.10
2018-11-10T07:33:19.708Z,151.40
2018-11-10T07:35:48.109Z,134.47
2018-11-10T07:38:16.477Z,140.23
2018-11-10T07:40:44.870Z,137.90
2018-11-10T07:43:13.357Z,116.27
2018-11-10T07:45:41.799Z,129.23
2018-11-10T07:48:10.179Z,121.90
2018-11-10T07:50:38.693Z,129.37
2018-11-10T07:53:07.079Z,120.83
2018-11-10T07:55:35.450Z,136.60
2018-11-10T07:58:03.855Z,118.70
2018-11-10T08:00:32.232Z,135.77
2018-11-10T08:03:00.626Z,117.93
2018-11-10T08:05:29.002Z,117.03
2018-11-10T08:07:57.403Z,113.37
2018-11-10T08:10:25.774Z,109.90
2018-11-10T08:12:54.171Z,102.53
2018-11-10T08:15:22.550Z,110.17
2018-11-10T08:17:50.946Z,98.90
2018-11-10T08:20:19.330Z,106.73
2018-11-10T08:22:47.735Z,112.83
2018-11-10T08:25:16.262Z,100.17
2018-11-10T08:27:44.666Z,94.10
2018-11-10T08:30:14.020Z,107.47
2018-11-10T08:32:42.826Z,110.83
2018-11-10T08:35:12.207Z,99.80
2018-11-10T08:37:40.617Z,115.93
2018-11-10T08:40:11.369Z,108.90
2018-11-10T08:42:39.889Z,108.60
2018-11-10T08:45:09.215Z,107.33
2018-11-10T08:47:37.606Z,97.93
2018-11-10T08:50:06.883Z,98.50
2018-11-10T08:52:35.598Z,91.23
2018-11-10T08:55:04.158Z,105.80
2018-11-10T08:57:32.581Z,103.33
2018-11-10T09:00:00.994Z,86.67
2018-11-10T09:02:29.414Z,97.40
2018-11-10T09:04:57.791Z,92.83
2018-11-10T09:07:26.199Z,118.90
2018-11-10T09:09:54.586Z,87.00
2018-11-10T09:12:22.991Z,79.60
2018-11-10T09:14:51.395Z,84.70
2018-11-10T09:17:19.801Z,77.80
2018-11-10T09:19:48.172Z,91.80
2018-11-10T09:22:16.575Z,98.83
2018-11-10T09:24:45.004Z,89.73
2018-11-10T09:27:13.407Z,87.47
2018-11-10T09:29:41.773Z,89.67
2018-11-10T09:32:10.194Z,92.50
2018-11-10T09:34:38.629Z,89.87
2018-11-10T09:37:07.162Z,81.43
2018-11-10T09:39:35.588Z,78.53
2018-11-10T09:42:04.056Z,86.70
2018-11-10T09:44:32.451Z,87.37
2018-11-10T09:47:00.861Z,77.30
2018-11-10T09:49:29.266Z,81.37
2018-11-10T09:51:57.646Z,80.20
2018-11-10T09:54:26.038Z,73.23
2018-11-10T09:56:54.418Z,87.57
2018-11-10T09:59:22.814Z,80.23
2018-11-10T10:01:51.518Z,76.00
2018-11-10T10:04:19.636Z,91.97
2018-11-10T10:06:48.005Z,79.83
2018-11-10T10:09:16.401Z,80.13
2018-11-10T10:11:44.777Z,88.37
2018-11-10T10:14:13.183Z,78.97
2018-11-10T10:16:41.587Z,89.27
2018-11-10T10:19:10.523Z,87.03
2018-11-10T10:21:38.907Z,84.20
2018-11-10T10:24:07.790Z,88.77
2018-11-10T10:26:36.179Z,73.70
2018-11-10T10:29:04.771Z,91.90
2018-11-10T10:31:33.128Z,82.33
2018-11-10T10:34:01.601Z,72.10
2018-11-10T10:36:29.926Z,79.40
2018-11-10T10:38:58.313Z,76.10
2018-11-10T10:41:26.725Z,71.03
2018-11-10T10:43:55.122Z,81.60
2018-11-10T10:46:23.507Z,65.70
2018-11-10T10:48:52.153Z,67.13
2018-11-10T10:51:20.370Z,60.07
2018-11-10T10:53:48.771Z,68.20
2018-11-10T10:56:17.156Z,63.33
2018-11-10T10:58:45.560Z,58.17
2018-11-10T11:01:19.258Z,77.40
2018-11-10T11:04:51.973Z,67.93
2018-11-10T11:07:20.342Z,70.60
2018-11-10T11:09:48.842Z,71.37
2018-11-10T11:12:17.143Z,71.83
2018-11-10T11:14:45.547Z,59.17
2018-11-10T11:17:14.204Z,63.37
2018-11-10T11:19:42.626Z,68.10
2018-11-10T11:22:11.002Z,60.80
2018-11-10T11:24:39.406Z,47.70
2018-11-10T11:27:07.799Z,64.93
2018-11-10T11:29:36.229Z,64.83
2018-11-10T11:32:04.931Z,69.27
2018-11-10T11:34:33.335Z,75.37
2018-11-10T11:37:01.727Z,71.60
2018-11-10T11:39:30.130Z,74.93
2018-11-10T11:41:58.522Z,75.07
2018-11-10T11:44:26.932Z,74.73
2018-11-10T11:46:55.312Z,59.87
2018-11-10T11:49:23.717Z,77.20
2018-11-10T11:51:52.087Z,85.53
2018-11-10T11:54:20.487Z,69.03
2018-11-10T11:56:48.871Z,81.50
2018-11-10T11:59:17.278Z,81.30
2018-11-10T12:01:45.659Z,79.63
2018-11-10T12:04:14.067Z,74.97
2018-11-10T12:06:42.447Z,78.60
2018-11-10T12:09:11.634Z,87.70
2018-11-10T12:11:40.006Z,83.37
2018-11-10T12:14:08.622Z,72.70
2018-11-10T12:16:37.041Z,82.03
2018-11-10T12:19:06.128Z,81.73
2018-11-10T12:21:34.514Z,80.33
2018-11-10T12:24:02.914Z,82.83
2018-11-10T12:26:31.307Z,79.77
2018-11-10T12:28:59.768Z,98.70
2018-11-10T12:31:28.169Z,81.87
2018-11-10T12:33:56.601Z,94.97
2018-11-10T12:36:24.974Z,93.83
2018-11-10T12:38:53.357Z,85.10
2018-11-10T12:41:21.955Z,90.10
2018-11-10T12:43:50.336Z,96.63
2018-11-10T12:46:18.730Z,82.30
2018-11-10T12:48:47.101Z,83.30
2018-11-10T12:51:15.538Z,89.40
2018-11-10T12:53:43.906Z,85.43
2018-11-10T12:56:12.316Z,101.03
2018-11-10T12:58:40.690Z,93.47
2018-11-10T13:01:09.083Z,88.53
2018-11-10T13:03:37.479Z,80.77
2018-11-10T13:06:06.238Z,89.67
2018-11-10T13:08:34.611Z,91.27
2018-11-10T13:11:03.088Z,94.20
2018-11-10T13:13:31.426Z,96.90
2018-11-10T13:15:59.832Z,99.43
2018-11-10T13:18:28.251Z,90.47
2018-11-10T13:20:56.646Z,107.13
2018-11-10T13:23:25.013Z,97.73
2018-11-10T13:25:53.424Z,82.10
2018-11-10T13:28:21.803Z,92.67
2018-11-10T13:30:50.267Z,102.10
2018-11-10T13:33:18.631Z,103.90
2018-11-10T13:35:47.030Z,101.27
2018-11-10T13:38:15.486Z,85.70
2018-11-10T13:40:43.826Z,106.87
2018-11-10T13:43:12.427Z,103.80
2018-11-10T13:45:40.832Z,116.37
2018-11-10T13:48:09.220Z,91.57
2018-11-10T13:50:37.721Z,99.83
2018-11-10T13:53:06.648Z,110.60
2018-11-10T13:55:34.650Z,109.97
2018-11-10T13:58:03.035Z,94.47
2018-11-10T14:00:31.452Z,106.27
2018-11-10T14:02:59.854Z,104.83
2018-11-10T14:05:28.250Z,98.03
2018-11-10T14:07:56.663Z,104.27
2018-11-10T14:10:25.109Z,104.10
2018-11-10T14:12:53.528Z,108.30
2018-11-10T14:15:21.890Z,107.27
2018-11-10T14:17:50.286Z,99.63
2018-11-10T14:20:18.671Z,104.50
2018-11-10T14:22:47.406Z,102.13
2018-11-10T14:25:16.360Z,90.73
2018-11-10T14:27:45.300Z,92.50
2018-11-10T14:30:14.884Z,105.50
2018-11-10T14:32:43.893Z,96.67
2018-11-10T14:35:12.862Z,104.90
2018-11-10T14:37:41.269Z,100.63
2018-11-10T14:40:11.736Z,109.60
2018-11-10T14:42:40.898Z,100.40
2018-11-10T14:45:10.995Z,103.37
2018-11-10T14:47:39.489Z,96.43
2018-11-10T14:50:09.178Z,94.00
2018-11-10T14:52:38.004Z,100.90
2018-11-10T14:55:07.266Z,99.40
2018-11-10T14:57:35.883Z,106.90
2018-11-10T15:00:04.646Z,102.30
2018-11-10T15:02:33.056Z,108.13
2018-11-10T15:05:01.434Z,101.20
2018-11-10T15:07:29.872Z,96.67
2018-11-10T15:09:58.249Z,105.47
2018-11-10T15:12:26.656Z,101.13
2018-11-10T15:14:55.118Z,113.77
2018-11-10T15:17:23.559Z,108.20
2018-11-10T15:19:51.934Z,96.47
2018-11-10T15:22:20.380Z,106.70
2018-11-10T15:24:48.791Z,113.83
2018-11-10T15:27:17.191Z,97.13
2018-11-10T15:29:45.565Z,89.23
2018-11-10T15:32:13.965Z,98.60
2018-11-10T15:34:42.354Z,97.87
2018-11-10T15:37:10.757Z,100.97
2018-11-10T15:39:39.129Z,110.07
2018-11-10T15:42:07.526Z,113.87
2018-11-10T15:44:36.488Z,112.70
2018-11-10T15:47:05.134Z,102.53
2018-11-10T15:49:33.530Z,106.23
2018-11-10T15:52:01.898Z,94.87
2018-11-10T15:54:30.318Z,104.57
2018-11-10T15:56:58.723Z,89.77
2018-11-10T15:59:27.114Z,98.37
2018-11-10T16:01:55.494Z,103.37
2018-11-10T16:04:23.889Z,86.23
2018-11-10T16:06:52.275Z,100.40
2018-11-10T16:09:20.711Z,98.00
2018-11-10T16:11:49.087Z,89.27
2018-11-10T16:14:17.498Z,97.30
2018-11-10T16:16:45.879Z,100.50
2018-11-10T16:19:14.278Z,96.33
2018-11-10T16:21:42.654Z,90.43
2018-11-10T16:24:11.046Z,93.53
2018-11-10T16:26:39.432Z,105.80
2018-11-10T16:29:07.828Z,94.73
2018-11-10T16:31:36.199Z,98.13
2018-11-10T16:34:04.652Z,102.57
2018-11-10T16:36:33.035Z,91.03
2018-11-10T16:39:01.437Z,94.50
2018-11-10T16:41:29.843Z,99.73
2018-11-10T16:43:58.242Z,92.80
2018-11-10T16:46:26.618Z,88.57
2018-11-10T16:48:55.075Z,95.27
2018-11-10T16:51:23.446Z,88.10
2018-11-10T16:53:51.843Z,77.70
2018-11-10T16:56:20.226Z,80.33
2018-11-10T16:58:48.676Z,76.07
2018-11-10T17:01:17.026Z,85.67
2018-11-10T17:03:45.422Z,80.73
2018-11-10T17:06:13.798Z,103.53
2018-11-10T17:08:42.229Z,75.67
2018-11-10T17:11:10.606Z,85.80
2018-11-10T17:13:39.087Z,92.03
2018-11-10T17:16:07.411Z,77.00
2018-11-10T17:18:35.813Z,81.47
2018-11-10T17:21:04.210Z,85.70
2018-11-10T17:23:32.640Z,93.33
2018-11-10T17:26:01.035Z,75.40
2018-11-10T17:28:29.464Z,78.50
2018-11-10T17:30:57.842Z,83.67
2018-11-10T17:33:26.216Z,79.77
2018-11-10T17:35:54.624Z,72.43
2018-11-10T17:38:22.997Z,77.00
2018-11-10T17:40:51.397Z,81.47
2018-11-10T17:43:19.795Z,77.00
2018-11-10T17:45:48.191Z,70.13
2018-11-10T17:48:16.639Z,74.53
2018-11-10T17:50:44.978Z,69.63
2018-11-10T17:53:13.363Z,86.00
2018-11-10T17:55:41.759Z,74.63
2018-11-10T17:58:10.138Z,71.90
2018-11-10T18:00:38.541Z,75.00
2018-11-10T18:03:06.919Z,80.63
2018-11-10T18:05:35.313Z,73.47
2018-11-10T18:08:03.685Z,72.17
2018-11-10T18:10:32.115Z,69.80
2018-11-10T18:13:00.525Z,78.43
2018-11-10T18:15:28.907Z,78.40
2018-11-10T18:17:57.274Z,68.60
2018-11-10T18:20:25.679Z,61.40
2018-11-10T18:22:54.054Z,63.87
2018-11-10T18:25:22.514Z,61.80
2018-11-10T18:27:50.852Z,69.23
2018-11-10T18:30:19.264Z,64.30
2018-11-10T18:32:47.766Z,72.13
2018-11-10T18:35:16.111Z,75.83
2018-11-10T18:37:44.487Z,80.33
2018-11-10T18:40:12.886Z,80.70
2018-11-10T18:42:41.285Z,83.53
2018-11-10T18:45:10.594Z,77.70
2018-11-10T18:47:39.566Z,71.40
2018-11-10T18:50:09.859Z,74.67
2018-11-10T18:52:38.234Z,87.03
2018-11-10T18:55:06.626Z,84.40
2018-11-10T18:57:35.040Z,66.87
2018-11-10T19:00:03.475Z,74.13
2018-11-10T19:02:31.863Z,76.03
2018-11-10T19:05:00.247Z,74.33
2018-11-10T19:07:28.655Z,76.80
2018-11-10T19:09:57.055Z,76.33
2018-11-10T19:12:25.450Z,80.83
2018-11-10T19:14:53.824Z,69.17
2018-11-10T19:17:22.222Z,73.53
2018-11-10T19:19:50.594Z,73.20
2018-11-10T19:22:18.997Z,77.60
2018-11-10T19:24:47.374Z,77.60
2018-11-10T19:27:15.779Z,89.83
2018-11-10T19:29:44.163Z,81.40
2018-11-10T19:32:12.617Z,88.37
2018-11-10T19:34:40.992Z,87.13
2018-11-10T19:37:09.407Z,82.10
2018-11-10T19:39:37.879Z,85.17
2018-11-10T19:42:06.294Z,77.00
2018-11-10T19:44:34.727Z,82.63
2018-11-10T19:47:03.108Z,80.53
2018-11-10T19:49:31.525Z,73.07
2018-11-10T19:52:00.067Z,75.47
2018-11-10T19:54:28.339Z,72.30
2018-11-10T19:56:56.750Z,69.77
2018-11-10T19:59:25.126Z,71.67
2018-11-10T20:01:53.539Z,72.60
2018-11-10T20:04:21.910Z,67.07
2018-11-10T20:06:50.418Z,72.43
2018-11-10T20:09:18.740Z,88.77
2018-11-10T20:11:47.194Z,74.77
2018-11-10T20:14:15.590Z,73.33
2018-11-10T20:16:44.028Z,73.47
2018-11-10T20:19:12.406Z,75.30
2018-11-10T20:21:40.811Z,77.30
2018-11-10T20:24:09.210Z,66.67
2018-11-10T20:26:37.595Z,75.90
2018-11-10T20:29:06.469Z,77.40
2018-11-10T20:31:34.846Z,73.10
2018-11-10T20:34:03.243Z,68.60
2018-11-10T20:36:31.635Z,76.07
2018-11-10T20:39:00.071Z,82.10
2018-11-10T20:41:28.447Z,64.90
2018-11-10T20:43:56.846Z,75.30
2018-11-10T20:46:25.222Z,75.80
2018-11-10T20:48:53.618Z,74.73
2018-11-10T20:51:21.998Z,73.70
2018-11-10T20:53:50.406Z,84.00
2018-11-10T20:56:18.786Z,73.97
2018-11-10T20:58:47.199Z,77.90
2018-11-10T21:01:15.674Z,72.63
2018-11-10T21:03:44.087Z,70.40
2018-11-10T21:06:12.463Z,75.37
2018-11-10T21:08:41.034Z,96.53
2018-11-10T21:11:09.418Z,75.80
2018-11-10T21:13:37.796Z,78.07
2018-11-10T21:16:06.238Z,70.57
2018-11-10T21:18:34.622Z,82.93
2018-11-10T21:21:03.027Z,77.97
2018-11-10T21:23:31.405Z,79.20
2018-11-10T21:25:59.982Z,82.03
2018-11-10T21:28:28.427Z,81.93
2018-11-10T21:30:56.787Z,79.63
2018-11-10T21:33:25.210Z,73.40
2018-11-10T21:35:53.618Z,78.07
2018-11-10T21:38:22.015Z,75.77
2018-11-10T21:40:50.419Z,67.37
2018-11-10T21:43:18.828Z,76.27
2018-11-10T21:45:47.232Z,79.50
2018-11-10T21:48:15.621Z,82.63
2018-11-10T21:50:44.014Z,83.57
2018-11-10T21:53:12.385Z,76.67
2018-11-10T21:55:40.783Z,77.63
2018-11-10T21:58:09.164Z,74.57
2018-11-10T22:00:37.554Z,74.43
2018-11-10T22:03:06.047Z,84.63
2018-11-10T22:05:34.426Z,71.53
2018-11-10T22:08:02.807Z,79.13
2018-11-10T22:10:31.219Z,83.37
2018-11-10T22:12:59.614Z,80.67
2018-11-10T22:15:27.987Z,72.13
2018-11-10T22:17:56.384Z,76.43
2018-11-10T22:20:25.433Z,79.50
2018-11-10T22:22:53.873Z,70.90
2018-11-10T22:25:22.221Z,81.87
2018-11-10T22:27:52.143Z,80.87
2018-11-10T22:30:21.518Z,76.23
2018-11-10T22:32:50.435Z,76.67
2018-11-10T22:35:18.900Z,76.60
2018-11-10T22:37:47.404Z,86.43
2018-11-10T22:40:17.079Z,78.00
2018-11-10T22:42:45.889Z,79.20
2018-11-10T22:45:15.577Z,83.43
2018-11-10T22:47:44.106Z,75.47
2018-11-10T22:50:15.438Z,82.50
2018-11-10T22:52:44.123Z,80.70
2018-11-10T22:55:12.526Z,76.43
2018-11-10T22:57:42.844Z,79.20
2018-11-10T23:00:16.619Z,84.77
2018-11-10T23:02:47.996Z,79.80
2018-11-10T23:05:16.954Z,84.73
2018-11-10T23:07:45.382Z,90.70
2018-11-10T23:10:14.426Z,87.10
2018-11-10T23:12:43.475Z,80.73
2018-11-10T23:15:12.010Z,87.87
2018-11-10T23:17:40.689Z,87.17
2018-11-10T23:20:11.047Z,85.17
2018-11-10T23:22:39.457Z,82.47
2018-11-10T23:25:09.542Z,92.13
2018-11-10T23:27:37.918Z,95.57
2018-11-10T23:30:09.527Z,88.70
2018-11-10T23:32:38.246Z,84.77
2018-11-10T23:35:06.715Z,82.03
2018-11-10T23:37:35.092Z,85.73
2018-11-10T23:40:03.507Z,93.97
2018-11-10T23:42:31.902Z,83.63
2018-11-10T23:45:00.303Z,86.33
2018-11-10T23:47:28.691Z,91.63
2018-11-10T23:49:57.096Z,85.90
2018-11-10T23:52:25.484Z,87.60
2018-11-10T23:54:53.885Z,85.83
2018-11-10T23:57:22.267Z,88.20
2018-11-10T23:59:50.675Z,84.97
